sensor_id;sensor_type;location;lat;lon;timestamp;temperature;humidity
26262;DHT22;13988;52.446;13.280;2022-07-29T00:01:51;17.10;99.90
26262;DHT22;13988;52.446;13.280;2022-07-29T00:04:18;17.10;99.90
26262;DHT22;13988;52.446;13.280;2022-07-29T00:06:44;17.10;99.90
26262;DHT22;13988;52.446;13.280;2022-07-29T00:09:10;17.00;99.90
26262;DHT22;13988;52.446;13.280;2022-07-29T00:11:35;17.00;99.90
26262;DHT22;13988;52.446;13.280;2022-07-29T00:14:01;17.00;99.90
26262;DHT22;13988;52.446;13.280;2022-07-29T00:16:27;17.00;99.90
26262;DHT22;13988;52.446;13.280;2022-07-29T00:18:53;16.90;99.90
26262;DHT22;13988;52.446;13.280;2022-07-29T00:21:18;16.90;99.90
26262;DHT22;13988;52.446;13.280;2022-07-29T00:23:44;16.90;99.90
26262;DHT22;13988;52.446;13.280;2022-07-29T00:26:10;16.80;99.90
26262;DHT22;13988;52.446;13.280;2022-07-29T00:28:35;16.80;99.90
26262;DHT22;13988;52.446;13.280;2022-07-29T00:31:01;16.80;99.90
26262;DHT22;13988;52.446;13.280;2022-07-29T00:33:28;16.70;99.90
26262;DHT22;13988;52.446;13.280;2022-07-29T00:35:53;16.70;99.90
26262;DHT22;13988;52.446;13.280;2022-07-29T00:38:19;16.70;99.90
26262;DHT22;13988;52.446;13.280;2022-07-29T00:40:46;16.70;99.90
26262;DHT22;13988;52.446;13.280;2022-07-29T00:43:13;16.70;99.90
26262;DHT22;13988;52.446;13.280;2022-07-29T00:45:39;16.60;99.90
26262;DHT22;13988;52.446;13.280;2022-07-29T00:48:05;16.60;99.90
26262;DHT22;13988;52.446;13.280;2022-07-29T00:50:32;16.60;99.90
26262;DHT22;13988;52.446;13.280;2022-07-29T00:52:58;16.50;99.90
26262;DHT22;13988;52.446;13.280;2022-07-29T00:55:24;16.50;99.90
26262;DHT22;13988;52.446;13.280;2022-07-29T00:57:50;16.60;99.90
26262;DHT22;13988;52.446;13.280;2022-07-29T01:00:19;16.40;99.90
26262;DHT22;13988;52.446;13.280;2022-07-29T01:02:46;16.40;99.90
26262;DHT22;13988;52.446;13.280;2022-07-29T01:05:24;16.40;99.90
26262;DHT22;13988;52.446;13.280;2022-07-29T01:07:53;16.30;99.90
26262;DHT22;13988;52.446;13.280;2022-07-29T01:10:20;16.30;99.90
26262;DHT22;13988;52.446;13.280;2022-07-29T01:12:48;16.40;99.90
26262;DHT22;13988;52.446;13.280;2022-07-29T01:15:15;16.40;99.90
26262;DHT22;13988;52.446;13.280;2022-07-29T01:17:52;16.30;99.90
26262;DHT22;13988;52.446;13.280;2022-07-29T01:31:11;16.30;99.90
26262;DHT22;13988;52.446;13.280;2022-07-29T01:33:41;16.30;99.90
26262;DHT22;13988;52.446;13.280;2022-07-29T01:36:25;16.20;99.90
26262;DHT22;13988;52.446;13.280;2022-07-29T01:39:10;16.20;99.90
26262;DHT22;13988;52.446;13.280;2022-07-29T01:41:38;16.30;99.90
26262;DHT22;13988;52.446;13.280;2022-07-29T01:44:22;16.20;99.90
26262;DHT22;13988;52.446;13.280;2022-07-29T01:46:58;16.10;99.90
26262;DHT22;13988;52.446;13.280;2022-07-29T01:49:30;16.20;99.90
26262;DHT22;13988;52.446;13.280;2022-07-29T01:52:23;16.10;99.90
26262;DHT22;13988;52.446;13.280;2022-07-29T01:54:56;16.10;99.90
26262;DHT22;13988;52.446;13.280;2022-07-29T01:57:27;16.20;99.90
26262;DHT22;13988;52.446;13.280;2022-07-29T01:59:54;16.10;99.90
26262;DHT22;13988;52.446;13.280;2022-07-29T02:02:21;16.10;99.90
26262;DHT22;13988;52.446;13.280;2022-07-29T02:04:49;16.10;99.90
26262;DHT22;13988;52.446;13.280;2022-07-29T02:07:19;16.00;99.90
26262;DHT22;13988;52.446;13.280;2022-07-29T02:09:45;16.00;99.90
26262;DHT22;13988;52.446;13.280;2022-07-29T02:12:14;16.00;99.90
26262;DHT22;13988;52.446;13.280;2022-07-29T02:14:44;15.90;99.90
26262;DHT22;13988;52.446;13.280;2022-07-29T02:17:12;16.00;99.90
26262;DHT22;13988;52.446;13.280;2022-07-29T02:19:39;16.00;99.90
26262;DHT22;13988;52.446;13.280;2022-07-29T02:22:06;16.00;99.90
26262;DHT22;13988;52.446;13.280;2022-07-29T02:24:34;16.00;99.90
26262;DHT22;13988;52.446;13.280;2022-07-29T02:27:01;16.00;99.90
26262;DHT22;13988;52.446;13.280;2022-07-29T02:29:28;16.00;99.90
26262;DHT22;13988;52.446;13.280;2022-07-29T02:31:57;15.80;99.90
26262;DHT22;13988;52.446;13.280;2022-07-29T02:34:23;16.00;99.90
26262;DHT22;13988;52.446;13.280;2022-07-29T02:36:50;15.90;99.90
26262;DHT22;13988;52.446;13.280;2022-07-29T02:39:17;15.90;99.90
26262;DHT22;13988;52.446;13.280;2022-07-29T02:42:05;16.00;99.90
26262;DHT22;13988;52.446;13.280;2022-07-29T02:44:32;16.00;99.90
26262;DHT22;13988;52.446;13.280;2022-07-29T02:47:30;16.00;99.90
26262;DHT22;13988;52.446;13.280;2022-07-29T02:50:35;16.00;99.90
26262;DHT22;13988;52.446;13.280;2022-07-29T02:53:07;16.00;99.90
26262;DHT22;13988;52.446;13.280;2022-07-29T02:58:19;16.00;99.90
26262;DHT22;13988;52.446;13.280;2022-07-29T03:00:49;15.90;99.90
26262;DHT22;13988;52.446;13.280;2022-07-29T03:03:18;15.90;99.90
26262;DHT22;13988;52.446;13.280;2022-07-29T03:05:44;15.90;99.90
26262;DHT22;13988;52.446;13.280;2022-07-29T03:08:11;16.00;99.90
26262;DHT22;13988;52.446;13.280;2022-07-29T03:10:39;16.00;99.90
26262;DHT22;13988;52.446;13.280;2022-07-29T03:13:08;16.00;99.90
26262;DHT22;13988;52.446;13.280;2022-07-29T03:15:35;15.90;99.90
26262;DHT22;13988;52.446;13.280;2022-07-29T03:18:01;15.90;99.90
26262;DHT22;13988;52.446;13.280;2022-07-29T03:20:30;15.90;99.90
26262;DHT22;13988;52.446;13.280;2022-07-29T03:22:56;15.90;99.90
26262;DHT22;13988;52.446;13.280;2022-07-29T03:25:21;15.90;99.90
26262;DHT22;13988;52.446;13.280;2022-07-29T03:27:48;15.80;99.90
26262;DHT22;13988;52.446;13.280;2022-07-29T03:30:14;15.80;99.90
26262;DHT22;13988;52.446;13.280;2022-07-29T03:32:41;15.80;99.90
26262;DHT22;13988;52.446;13.280;2022-07-29T03:35:07;15.80;99.90
26262;DHT22;13988;52.446;13.280;2022-07-29T03:37:33;15.80;99.90
26262;DHT22;13988;52.446;13.280;2022-07-29T03:40:01;15.80;99.90
26262;DHT22;13988;52.446;13.280;2022-07-29T03:42:31;15.80;99.90
26262;DHT22;13988;52.446;13.280;2022-07-29T03:44:58;15.70;99.90
26262;DHT22;13988;52.446;13.280;2022-07-29T03:47:27;15.70;99.90
26262;DHT22;13988;52.446;13.280;2022-07-29T03:49:59;15.70;99.90
26262;DHT22;13988;52.446;13.280;2022-07-29T03:52:25;15.70;99.90
26262;DHT22;13988;52.446;13.280;2022-07-29T03:54:51;15.70;99.90
26262;DHT22;13988;52.446;13.280;2022-07-29T03:57:19;15.70;99.90
26262;DHT22;13988;52.446;13.280;2022-07-29T03:59:46;15.70;99.90
26262;DHT22;13988;52.446;13.280;2022-07-29T04:02:13;15.80;99.90
26262;DHT22;13988;52.446;13.280;2022-07-29T04:04:39;15.80;99.90
26262;DHT22;13988;52.446;13.280;2022-07-29T04:07:05;15.80;99.90
26262;DHT22;13988;52.446;13.280;2022-07-29T04:09:31;15.80;99.90
26262;DHT22;13988;52.446;13.280;2022-07-29T04:11:57;15.80;99.90
26262;DHT22;13988;52.446;13.280;2022-07-29T04:14:22;15.80;99.90
26262;DHT22;13988;52.446;13.280;2022-07-29T04:16:48;15.90;99.90
26262;DHT22;13988;52.446;13.280;2022-07-29T04:19:14;15.80;99.90
26262;DHT22;13988;52.446;13.280;2022-07-29T04:21:40;15.80;99.90
26262;DHT22;13988;52.446;13.280;2022-07-29T04:24:07;15.90;99.90
26262;DHT22;13988;52.446;13.280;2022-07-29T04:26:33;16.00;99.90
26262;DHT22;13988;52.446;13.280;2022-07-29T04:29:00;15.90;99.90
26262;DHT22;13988;52.446;13.280;2022-07-29T04:31:25;15.90;99.90
26262;DHT22;13988;52.446;13.280;2022-07-29T04:33:51;16.00;99.90
26262;DHT22;13988;52.446;13.280;2022-07-29T04:36:17;16.00;99.90
26262;DHT22;13988;52.446;13.280;2022-07-29T04:38:43;16.00;99.90
26262;DHT22;13988;52.446;13.280;2022-07-29T04:41:08;16.00;99.90
26262;DHT22;13988;52.446;13.280;2022-07-29T04:43:37;16.10;99.90
26262;DHT22;13988;52.446;13.280;2022-07-29T04:46:03;16.10;99.90
26262;DHT22;13988;52.446;13.280;2022-07-29T04:48:29;16.10;99.90
26262;DHT22;13988;52.446;13.280;2022-07-29T04:50:55;16.10;99.90
26262;DHT22;13988;52.446;13.280;2022-07-29T04:53:21;16.10;99.90
26262;DHT22;13988;52.446;13.280;2022-07-29T04:55:47;16.20;99.90
26262;DHT22;13988;52.446;13.280;2022-07-29T04:58:13;16.20;99.90
26262;DHT22;13988;52.446;13.280;2022-07-29T05:00:39;16.40;99.90
26262;DHT22;13988;52.446;13.280;2022-07-29T05:03:04;16.40;99.90
26262;DHT22;13988;52.446;13.280;2022-07-29T05:05:30;16.40;99.90
26262;DHT22;13988;52.446;13.280;2022-07-29T05:07:56;16.50;99.90
26262;DHT22;13988;52.446;13.280;2022-07-29T05:10:22;16.60;99.90
26262;DHT22;13988;52.446;13.280;2022-07-29T05:12:47;16.70;99.90
26262;DHT22;13988;52.446;13.280;2022-07-29T05:15:13;16.80;99.90
26262;DHT22;13988;52.446;13.280;2022-07-29T05:17:39;16.70;99.90
26262;DHT22;13988;52.446;13.280;2022-07-29T05:20:06;16.70;99.90
26262;DHT22;13988;52.446;13.280;2022-07-29T05:22:31;16.70;99.90
26262;DHT22;13988;52.446;13.280;2022-07-29T05:24:57;16.60;99.90
26262;DHT22;13988;52.446;13.280;2022-07-29T05:27:23;16.50;99.90
26262;DHT22;13988;52.446;13.280;2022-07-29T05:29:48;16.50;99.90
26262;DHT22;13988;52.446;13.280;2022-07-29T05:32:14;16.40;99.90
26262;DHT22;13988;52.446;13.280;2022-07-29T05:34:40;16.40;99.90
26262;DHT22;13988;52.446;13.280;2022-07-29T05:37:06;16.30;99.90
26262;DHT22;13988;52.446;13.280;2022-07-29T05:39:32;16.40;99.90
26262;DHT22;13988;52.446;13.280;2022-07-29T05:41:57;16.60;99.90
26262;DHT22;13988;52.446;13.280;2022-07-29T05:44:23;16.60;99.90
26262;DHT22;13988;52.446;13.280;2022-07-29T05:46:49;16.80;99.90
26262;DHT22;13988;52.446;13.280;2022-07-29T05:49:14;16.80;99.90
26262;DHT22;13988;52.446;13.280;2022-07-29T05:51:40;16.80;99.90
26262;DHT22;13988;52.446;13.280;2022-07-29T05:54:06;16.90;99.90
26262;DHT22;13988;52.446;13.280;2022-07-29T05:56:31;17.20;99.90
26262;DHT22;13988;52.446;13.280;2022-07-29T05:58:57;17.40;99.90
26262;DHT22;13988;52.446;13.280;2022-07-29T06:01:23;17.50;99.90
26262;DHT22;13988;52.446;13.280;2022-07-29T06:03:49;17.60;99.90
26262;DHT22;13988;52.446;13.280;2022-07-29T06:06:15;17.70;99.90
26262;DHT22;13988;52.446;13.280;2022-07-29T06:08:40;17.70;99.90
26262;DHT22;13988;52.446;13.280;2022-07-29T06:11:06;17.80;99.90
26262;DHT22;13988;52.446;13.280;2022-07-29T06:13:34;17.90;99.90
26262;DHT22;13988;52.446;13.280;2022-07-29T06:15:59;18.30;99.90
26262;DHT22;13988;52.446;13.280;2022-07-29T06:18:25;18.00;99.90
26262;DHT22;13988;52.446;13.280;2022-07-29T06:20:51;18.40;99.90
26262;DHT22;13988;52.446;13.280;2022-07-29T06:23:18;18.30;99.90
26262;DHT22;13988;52.446;13.280;2022-07-29T06:25:44;18.30;99.90
26262;DHT22;13988;52.446;13.280;2022-07-29T06:28:10;18.40;99.90
26262;DHT22;13988;52.446;13.280;2022-07-29T06:30:35;18.40;99.90
26262;DHT22;13988;52.446;13.280;2022-07-29T06:33:01;18.30;99.90
26262;DHT22;13988;52.446;13.280;2022-07-29T06:35:27;18.20;99.90
26262;DHT22;13988;52.446;13.280;2022-07-29T06:37:53;18.10;99.90
26262;DHT22;13988;52.446;13.280;2022-07-29T06:40:20;18.20;99.90
26262;DHT22;13988;52.446;13.280;2022-07-29T06:43:04;18.10;99.90
26262;DHT22;13988;52.446;13.280;2022-07-29T06:45:33;18.30;99.90
26262;DHT22;13988;52.446;13.280;2022-07-29T06:47:59;18.30;99.90
26262;DHT22;13988;52.446;13.280;2022-07-29T06:50:25;18.60;99.90
26262;DHT22;13988;52.446;13.280;2022-07-29T06:52:50;18.60;99.90
26262;DHT22;13988;52.446;13.280;2022-07-29T06:55:16;18.80;99.90
26262;DHT22;13988;52.446;13.280;2022-07-29T06:57:45;18.90;99.90
26262;DHT22;13988;52.446;13.280;2022-07-29T07:00:11;19.30;99.90
26262;DHT22;13988;52.446;13.280;2022-07-29T07:02:36;20.40;99.90
26262;DHT22;13988;52.446;13.280;2022-07-29T07:05:02;20.40;99.90
26262;DHT22;13988;52.446;13.280;2022-07-29T07:07:28;21.10;99.90
26262;DHT22;13988;52.446;13.280;2022-07-29T07:09:53;21.50;99.90
26262;DHT22;13988;52.446;13.280;2022-07-29T07:12:19;21.20;99.90
26262;DHT22;13988;52.446;13.280;2022-07-29T07:14:44;20.40;99.90
26262;DHT22;13988;52.446;13.280;2022-07-29T07:17:10;21.30;99.90
26262;DHT22;13988;52.446;13.280;2022-07-29T07:19:36;22.40;99.90
26262;DHT22;13988;52.446;13.280;2022-07-29T07:22:01;21.70;99.90
26262;DHT22;13988;52.446;13.280;2022-07-29T07:24:27;22.70;99.90
26262;DHT22;13988;52.446;13.280;2022-07-29T07:26:53;23.90;99.70
26262;DHT22;13988;52.446;13.280;2022-07-29T07:29:18;24.50;94.60
26262;DHT22;13988;52.446;13.280;2022-07-29T07:31:44;25.90;88.20
26262;DHT22;13988;52.446;13.280;2022-07-29T07:34:10;25.20;85.90
26262;DHT22;13988;52.446;13.280;2022-07-29T07:36:36;25.10;87.50
26262;DHT22;13988;52.446;13.280;2022-07-29T07:39:02;26.60;85.20
26262;DHT22;13988;52.446;13.280;2022-07-29T07:41:28;26.70;79.20
26262;DHT22;13988;52.446;13.280;2022-07-29T07:43:54;25.60;78.60
26262;DHT22;13988;52.446;13.280;2022-07-29T07:46:20;25.40;78.20
26262;DHT22;13988;52.446;13.280;2022-07-29T07:48:45;24.90;76.90
26262;DHT22;13988;52.446;13.280;2022-07-29T07:51:11;25.40;74.10
26262;DHT22;13988;52.446;13.280;2022-07-29T07:53:37;26.40;74.10
26262;DHT22;13988;52.446;13.280;2022-07-29T07:56:02;27.00;71.20
26262;DHT22;13988;52.446;13.280;2022-07-29T07:58:29;27.10;70.30
26262;DHT22;13988;52.446;13.280;2022-07-29T08:00:55;25.60;69.20
26262;DHT22;13988;52.446;13.280;2022-07-29T08:03:20;26.60;68.70
26262;DHT22;13988;52.446;13.280;2022-07-29T08:05:46;26.60;67.20
26262;DHT22;13988;52.446;13.280;2022-07-29T08:08:12;25.80;68.80
26262;DHT22;13988;52.446;13.280;2022-07-29T08:10:38;25.30;72.30
26262;DHT22;13988;52.446;13.280;2022-07-29T08:13:23;24.30;73.90
26262;DHT22;13988;52.446;13.280;2022-07-29T08:15:50;23.90;75.50
26262;DHT22;13988;52.446;13.280;2022-07-29T08:18:28;23.60;77.00
26262;DHT22;13988;52.446;13.280;2022-07-29T08:20:54;24.00;78.00
26262;DHT22;13988;52.446;13.280;2022-07-29T08:23:20;23.60;79.00
26262;DHT22;13988;52.446;13.280;2022-07-29T08:25:46;23.60;77.60
26262;DHT22;13988;52.446;13.280;2022-07-29T08:28:12;23.50;77.90
26262;DHT22;13988;52.446;13.280;2022-07-29T08:30:37;23.60;78.80
26262;DHT22;13988;52.446;13.280;2022-07-29T08:33:03;23.90;78.00
26262;DHT22;13988;52.446;13.280;2022-07-29T08:35:29;23.40;76.70
26262;DHT22;13988;52.446;13.280;2022-07-29T08:37:55;23.80;78.40
26262;DHT22;13988;52.446;13.280;2022-07-29T08:40:22;24.00;78.50
26262;DHT22;13988;52.446;13.280;2022-07-29T08:42:49;24.00;78.00
26262;DHT22;13988;52.446;13.280;2022-07-29T08:45:15;23.80;75.70
26262;DHT22;13988;52.446;13.280;2022-07-29T08:47:43;23.90;78.40
26262;DHT22;13988;52.446;13.280;2022-07-29T08:50:10;23.80;75.80
26262;DHT22;13988;52.446;13.280;2022-07-29T08:52:37;23.40;75.90
26262;DHT22;13988;52.446;13.280;2022-07-29T08:55:05;23.50;76.30
26262;DHT22;13988;52.446;13.280;2022-07-29T08:57:31;23.60;76.90
26262;DHT22;13988;52.446;13.280;2022-07-29T09:00:00;23.40;76.80
26262;DHT22;13988;52.446;13.280;2022-07-29T09:02:29;23.50;80.20
26262;DHT22;13988;52.446;13.280;2022-07-29T09:04:56;23.80;79.00
26262;DHT22;13988;52.446;13.280;2022-07-29T09:07:23;24.30;79.30
26262;DHT22;13988;52.446;13.280;2022-07-29T09:09:49;24.50;77.30
26262;DHT22;13988;52.446;13.280;2022-07-29T09:12:15;24.70;75.10
26262;DHT22;13988;52.446;13.280;2022-07-29T09:14:42;24.70;75.10
26262;DHT22;13988;52.446;13.280;2022-07-29T09:17:08;24.80;76.20
26262;DHT22;13988;52.446;13.280;2022-07-29T09:19:35;24.70;73.10
26262;DHT22;13988;52.446;13.280;2022-07-29T09:22:04;24.50;73.80
26262;DHT22;13988;52.446;13.280;2022-07-29T09:24:40;24.30;75.50
26262;DHT22;13988;52.446;13.280;2022-07-29T09:27:09;24.10;74.40
26262;DHT22;13988;52.446;13.280;2022-07-29T09:29:35;24.20;74.10
26262;DHT22;13988;52.446;13.280;2022-07-29T09:32:06;24.20;73.00
26262;DHT22;13988;52.446;13.280;2022-07-29T09:34:33;24.30;73.40
26262;DHT22;13988;52.446;13.280;2022-07-29T09:36:59;24.50;72.10
26262;DHT22;13988;52.446;13.280;2022-07-29T09:39:29;24.70;72.90
26262;DHT22;13988;52.446;13.280;2022-07-29T09:41:56;25.10;71.50
26262;DHT22;13988;52.446;13.280;2022-07-29T09:44:23;25.60;70.00
26262;DHT22;13988;52.446;13.280;2022-07-29T09:46:57;25.50;66.00
26262;DHT22;13988;52.446;13.280;2022-07-29T09:49:24;25.30;67.40
26262;DHT22;13988;52.446;13.280;2022-07-29T09:52:03;25.10;65.60
26262;DHT22;13988;52.446;13.280;2022-07-29T09:54:29;25.30;68.60
26262;DHT22;13988;52.446;13.280;2022-07-29T09:56:59;25.30;65.70
26262;DHT22;13988;52.446;13.280;2022-07-29T09:59:25;25.60;64.90
26262;DHT22;13988;52.446;13.280;2022-07-29T10:01:52;25.90;64.30
26262;DHT22;13988;52.446;13.280;2022-07-29T10:04:18;26.00;64.00
26262;DHT22;13988;52.446;13.280;2022-07-29T10:07:01;25.60;62.80
26262;DHT22;13988;52.446;13.280;2022-07-29T10:09:27;25.80;61.90
26262;DHT22;13988;52.446;13.280;2022-07-29T10:12:07;25.50;61.00
26262;DHT22;13988;52.446;13.280;2022-07-29T10:14:33;25.50;64.20
26262;DHT22;13988;52.446;13.280;2022-07-29T10:17:00;25.80;61.60
26262;DHT22;13988;52.446;13.280;2022-07-29T10:19:28;25.60;59.70
26262;DHT22;13988;52.446;13.280;2022-07-29T10:21:56;25.80;60.00
26262;DHT22;13988;52.446;13.280;2022-07-29T10:24:22;26.00;59.90
26262;DHT22;13988;52.446;13.280;2022-07-29T10:26:49;25.80;59.10
26262;DHT22;13988;52.446;13.280;2022-07-29T10:29:15;26.10;59.60
26262;DHT22;13988;52.446;13.280;2022-07-29T10:40:18;26.10;59.80
26262;DHT22;13988;52.446;13.280;2022-07-29T10:43:31;25.90;57.90
26262;DHT22;13988;52.446;13.280;2022-07-29T10:46:01;25.70;56.80
26262;DHT22;13988;52.446;13.280;2022-07-29T10:48:28;25.70;57.50
26262;DHT22;13988;52.446;13.280;2022-07-29T10:51:04;25.70;58.30
26262;DHT22;13988;52.446;13.280;2022-07-29T10:53:48;25.60;58.60
26262;DHT22;13988;52.446;13.280;2022-07-29T10:56:30;25.90;58.50
26262;DHT22;13988;52.446;13.280;2022-07-29T11:01:50;25.40;58.00
26262;DHT22;13988;52.446;13.280;2022-07-29T11:04:21;25.60;58.90
26262;DHT22;13988;52.446;13.280;2022-07-29T11:09:30;26.60;56.20
26262;DHT22;13988;52.446;13.280;2022-07-29T11:11:57;26.70;55.10
26262;DHT22;13988;52.446;13.280;2022-07-29T11:17:23;27.20;54.00
26262;DHT22;13988;52.446;13.280;2022-07-29T11:19:48;27.00;53.70
26262;DHT22;13988;52.446;13.280;2022-07-29T11:22:35;27.10;53.00
26262;DHT22;13988;52.446;13.280;2022-07-29T11:25:15;26.70;53.30
26262;DHT22;13988;52.446;13.280;2022-07-29T11:27:41;26.30;55.20
26262;DHT22;13988;52.446;13.280;2022-07-29T11:30:07;26.10;56.00
26262;DHT22;13988;52.446;13.280;2022-07-29T11:32:39;26.50;54.90
26262;DHT22;13988;52.446;13.280;2022-07-29T11:35:17;26.70;55.20
26262;DHT22;13988;52.446;13.280;2022-07-29T11:37:43;27.30;55.20
26262;DHT22;13988;52.446;13.280;2022-07-29T11:40:11;26.80;54.90
26262;DHT22;13988;52.446;13.280;2022-07-29T11:42:42;27.00;55.90
26262;DHT22;13988;52.446;13.280;2022-07-29T11:45:44;27.00;55.00
26262;DHT22;13988;52.446;13.280;2022-07-29T11:48:18;27.40;55.40
26262;DHT22;13988;52.446;13.280;2022-07-29T11:50:44;27.40;57.40
26262;DHT22;13988;52.446;13.280;2022-07-29T11:53:12;29.00;56.00
26262;DHT22;13988;52.446;13.280;2022-07-29T11:55:39;29.20;54.60
26262;DHT22;13988;52.446;13.280;2022-07-29T11:58:05;28.90;54.20
26262;DHT22;13988;52.446;13.280;2022-07-29T12:00:37;29.00;53.90
26262;DHT22;13988;52.446;13.280;2022-07-29T12:03:08;28.20;54.90
26262;DHT22;13988;52.446;13.280;2022-07-29T12:05:41;28.10;55.80
26262;DHT22;13988;52.446;13.280;2022-07-29T12:08:08;28.00;55.70
26262;DHT22;13988;52.446;13.280;2022-07-29T12:10:33;28.20;54.90
26262;DHT22;13988;52.446;13.280;2022-07-29T12:12:59;28.70;54.40
26262;DHT22;13988;52.446;13.280;2022-07-29T12:15:25;28.40;56.30
26262;DHT22;13988;52.446;13.280;2022-07-29T12:17:51;28.10;55.40
26262;DHT22;13988;52.446;13.280;2022-07-29T12:20:26;29.00;55.40
26262;DHT22;13988;52.446;13.280;2022-07-29T12:22:53;28.70;55.00
26262;DHT22;13988;52.446;13.280;2022-07-29T12:25:24;28.20;56.10
26262;DHT22;13988;52.446;13.280;2022-07-29T12:28:01;28.90;56.90
26262;DHT22;13988;52.446;13.280;2022-07-29T12:35:40;31.00;54.50
26262;DHT22;13988;52.446;13.280;2022-07-29T12:38:10;30.50;52.30
26262;DHT22;13988;52.446;13.280;2022-07-29T12:40:36;30.40;55.00
26262;DHT22;13988;52.446;13.280;2022-07-29T12:43:21;30.20;52.40
26262;DHT22;13988;52.446;13.280;2022-07-29T12:45:51;28.90;55.10
26262;DHT22;13988;52.446;13.280;2022-07-29T12:48:37;29.10;54.60
26262;DHT22;13988;52.446;13.280;2022-07-29T12:51:04;27.80;57.50
26262;DHT22;13988;52.446;13.280;2022-07-29T12:53:31;27.60;57.70
26262;DHT22;13988;52.446;13.280;2022-07-29T12:55:58;27.80;56.10
26262;DHT22;13988;52.446;13.280;2022-07-29T12:58:40;28.10;56.60
26262;DHT22;13988;52.446;13.280;2022-07-29T13:01:14;28.20;55.70
26262;DHT22;13988;52.446;13.280;2022-07-29T13:03:59;28.20;55.10
26262;DHT22;13988;52.446;13.280;2022-07-29T13:06:37;28.90;55.20
26262;DHT22;13988;52.446;13.280;2022-07-29T13:09:18;29.40;53.90
26262;DHT22;13988;52.446;13.280;2022-07-29T13:11:50;28.80;54.80
26262;DHT22;13988;52.446;13.280;2022-07-29T13:14:36;29.20;54.90
26262;DHT22;13988;52.446;13.280;2022-07-29T13:17:07;29.50;54.10
26262;DHT22;13988;52.446;13.280;2022-07-29T13:22:00;28.90;56.90
26262;DHT22;13988;52.446;13.280;2022-07-29T13:24:26;28.80;55.50
26262;DHT22;13988;52.446;13.280;2022-07-29T13:26:51;28.90;53.90
26262;DHT22;13988;52.446;13.280;2022-07-29T13:29:17;28.30;54.90
26262;DHT22;13988;52.446;13.280;2022-07-29T13:31:46;27.50;56.70
26262;DHT22;13988;52.446;13.280;2022-07-29T13:34:11;28.10;56.80
26262;DHT22;13988;52.446;13.280;2022-07-29T13:36:37;28.50;55.60
26262;DHT22;13988;52.446;13.280;2022-07-29T13:39:03;28.60;55.10
26262;DHT22;13988;52.446;13.280;2022-07-29T13:41:29;28.90;55.20
26262;DHT22;13988;52.446;13.280;2022-07-29T13:43:54;28.80;54.60
26262;DHT22;13988;52.446;13.280;2022-07-29T13:46:20;28.80;55.20
26262;DHT22;13988;52.446;13.280;2022-07-29T13:48:46;28.30;54.40
26262;DHT22;13988;52.446;13.280;2022-07-29T13:51:12;28.70;56.50
26262;DHT22;13988;52.446;13.280;2022-07-29T13:53:37;28.80;55.00
26262;DHT22;13988;52.446;13.280;2022-07-29T13:56:03;29.20;54.80
26262;DHT22;13988;52.446;13.280;2022-07-29T13:58:32;29.20;53.20
26262;DHT22;13988;52.446;13.280;2022-07-29T14:00:58;29.20;54.10
26262;DHT22;13988;52.446;13.280;2022-07-29T14:03:24;29.00;54.60
26262;DHT22;13988;52.446;13.280;2022-07-29T14:05:50;28.80;55.10
26262;DHT22;13988;52.446;13.280;2022-07-29T14:08:16;28.90;55.30
26262;DHT22;13988;52.446;13.280;2022-07-29T14:10:41;29.20;55.60
26262;DHT22;13988;52.446;13.280;2022-07-29T14:13:07;29.50;53.80
26262;DHT22;13988;52.446;13.280;2022-07-29T14:15:33;28.50;54.80
26262;DHT22;13988;52.446;13.280;2022-07-29T14:17:58;28.00;55.30
26262;DHT22;13988;52.446;13.280;2022-07-29T14:20:24;28.20;55.10
26262;DHT22;13988;52.446;13.280;2022-07-29T14:22:49;27.80;55.80
26262;DHT22;13988;52.446;13.280;2022-07-29T14:25:15;27.80;57.50
26262;DHT22;13988;52.446;13.280;2022-07-29T14:27:42;27.30;56.80
26262;DHT22;13988;52.446;13.280;2022-07-29T14:30:08;27.40;58.10
26262;DHT22;13988;52.446;13.280;2022-07-29T14:32:34;27.90;56.30
26262;DHT22;13988;52.446;13.280;2022-07-29T14:35:00;27.90;58.10
26262;DHT22;13988;52.446;13.280;2022-07-29T14:37:25;28.10;57.20
26262;DHT22;13988;52.446;13.280;2022-07-29T14:39:53;27.80;56.50
26262;DHT22;13988;52.446;13.280;2022-07-29T14:42:19;27.80;55.80
26262;DHT22;13988;52.446;13.280;2022-07-29T14:44:45;28.50;54.60
26262;DHT22;13988;52.446;13.280;2022-07-29T14:47:10;28.80;53.90
26262;DHT22;13988;52.446;13.280;2022-07-29T14:49:36;28.80;53.90
26262;DHT22;13988;52.446;13.280;2022-07-29T14:52:02;28.70;52.80
26262;DHT22;13988;52.446;13.280;2022-07-29T14:54:28;28.00;53.60
26262;DHT22;13988;52.446;13.280;2022-07-29T14:56:54;28.40;54.80
26262;DHT22;13988;52.446;13.280;2022-07-29T14:59:22;28.80;52.80
26262;DHT22;13988;52.446;13.280;2022-07-29T15:01:47;28.50;53.40
26262;DHT22;13988;52.446;13.280;2022-07-29T15:04:13;29.00;54.70
26262;DHT22;13988;52.446;13.280;2022-07-29T15:06:38;29.00;53.10
26262;DHT22;13988;52.446;13.280;2022-07-29T15:09:04;29.00;52.40
26262;DHT22;13988;52.446;13.280;2022-07-29T15:11:30;29.50;52.50
26262;DHT22;13988;52.446;13.280;2022-07-29T15:13:55;29.70;51.80
26262;DHT22;13988;52.446;13.280;2022-07-29T15:16:21;29.30;52.40
26262;DHT22;13988;52.446;13.280;2022-07-29T15:18:46;28.50;52.20
26262;DHT22;13988;52.446;13.280;2022-07-29T15:21:12;28.20;52.60
26262;DHT22;13988;52.446;13.280;2022-07-29T15:23:38;28.00;53.20
26262;DHT22;13988;52.446;13.280;2022-07-29T15:26:04;28.20;53.60
26262;DHT22;13988;52.446;13.280;2022-07-29T15:28:30;28.20;52.50
26262;DHT22;13988;52.446;13.280;2022-07-29T15:30:55;28.80;53.00
26262;DHT22;13988;52.446;13.280;2022-07-29T15:33:21;28.50;52.30
26262;DHT22;13988;52.446;13.280;2022-07-29T15:35:47;28.50;53.70
26262;DHT22;13988;52.446;13.280;2022-07-29T15:38:12;28.60;53.50
26262;DHT22;13988;52.446;13.280;2022-07-29T15:40:39;28.80;53.90
26262;DHT22;13988;52.446;13.280;2022-07-29T15:43:06;28.50;53.00
26262;DHT22;13988;52.446;13.280;2022-07-29T15:45:40;28.40;53.20
26262;DHT22;13988;52.446;13.280;2022-07-29T15:48:07;28.50;53.40
26262;DHT22;13988;52.446;13.280;2022-07-29T15:50:33;28.70;53.10
26262;DHT22;13988;52.446;13.280;2022-07-29T15:52:59;28.40;53.30
26262;DHT22;13988;52.446;13.280;2022-07-29T15:55:25;27.80;53.30
26262;DHT22;13988;52.446;13.280;2022-07-29T15:57:50;27.50;53.70
26262;DHT22;13988;52.446;13.280;2022-07-29T16:00:16;27.60;53.30